Airfield :
LOGIN :

Register | Disclaimer

   EN    FR    IT 

 










Legend :    VFR   Marginal VFR   IFR   Intensive IFR   Very Intensive IFR
Visi :
Ceiling :
>= 8 km
>= 3000ft
5 to 8 km
1000 to 3000 ft
1500m to 5 km
500 to 1000 ft
800 to 1500m
200 to 500 ft
< 800m
< 200 ft
Symbols :   Thunderstorms  Fog  Heavy snow  Heavy precipitations  Wind > 20 kt
SIGMETs :     Misc.  Thunderstorms  Icing  Turbulence  Mountain Waves  Volcanic Ashes






- Airport Elevation : 268 ft
- IATA code : BFS


EGAA - Belfast Aldergrove

CURRENT METAR :
  • 131650Z 22009KT 6000 RA SCT023CB 17/15 Q1021

EXPIRED METARs :
  • 131620Z 23010KT CAVOK 19/14 Q1021
  • 131550Z 24009KT 9999 -RA FEW044 19/14 Q1022 RERA
  • 131520Z 25010KT 9999 -RA NSC 20/13 Q1022
  • 131450Z 24012KT CAVOK 20/13 Q1022
  • 131420Z 24012KT CAVOK 20/13 Q1022

TAF AMD TAF EGAA
Valid from the 13 at 16:00 until the 14 at 12:00 UTC


131636Z 1316/1412 22011KT 9999 FEW025 SCT045
PROB40
TEMPO 1316/1319 7000 RA
BECMG 1320/1323 BKN008
PROB40
TEMPO 1321/1403 6000 RA -RADZ
BECMG 1323/1402 28009KT
BECMG 1402/1404 SCT025



MET'MAP, your aeronautical weather chart ! - Copyright ORBIFLY December 2007 - Disclaimer

ORBIFLY MET'MAP TEAM :

Programming & Development : Alexandra Zaïnal
Concept & original design : Baudouin d'Aumeries
Assistance for programming : Marc-Olivier Méhu
Technical & hardware support : Manuel Goepfert

Contact : metmap@orbifly.com




SOURCES & CREDITS :

   NOAA